createdAt,value
2017-11-20T00:00:23.201Z,9.97
2017-11-20T00:02:52.235Z,9.53
2017-11-20T00:05:21.408Z,9.63
2017-11-20T00:07:50.691Z,9.60
2017-11-20T00:10:22.500Z,9.57
2017-11-20T00:12:51.568Z,10.03
2017-11-20T00:15:20.595Z,9.13
2017-11-20T00:17:49.656Z,8.10
2017-11-20T00:20:18.682Z,8.77
2017-11-20T00:22:47.672Z,8.90
2017-11-20T00:25:16.736Z,9.57
2017-11-20T00:27:45.737Z,9.67
2017-11-20T00:30:14.802Z,9.30
2017-11-20T00:32:43.888Z,9.40
2017-11-20T00:35:12.956Z,9.17
2017-11-20T00:37:41.995Z,9.27
2017-11-20T00:40:11.052Z,9.27
2017-11-20T00:42:40.060Z,8.53
2017-11-20T00:45:10.924Z,9.20
2017-11-20T00:47:40.006Z,8.80
2017-11-20T00:50:09.064Z,9.80
2017-11-20T00:52:38.132Z,8.73
2017-11-20T00:55:07.188Z,9.47
2017-11-20T00:57:36.211Z,9.67
2017-11-20T01:00:05.238Z,9.10
2017-11-20T01:02:34.284Z,10.40
2017-11-20T01:05:03.321Z,8.63
2017-11-20T01:07:32.524Z,9.20
2017-11-20T01:10:02.221Z,9.77
2017-11-20T01:12:31.341Z,9.80
2017-11-20T01:15:00.558Z,11.00
2017-11-20T01:17:29.610Z,9.73
2017-11-20T01:19:58.664Z,9.27
2017-11-20T01:22:28.587Z,11.37
2017-11-20T01:24:58.130Z,10.97
2017-11-20T01:27:27.288Z,10.20
2017-11-20T01:30:03.386Z,10.93
2017-11-20T01:32:32.491Z,11.70
2017-11-20T01:35:01.533Z,11.30
2017-11-20T01:37:30.636Z,11.67
2017-11-20T01:39:59.716Z,10.87
2017-11-20T01:42:28.768Z,11.80
2017-11-20T01:45:00.800Z,10.60
2017-11-20T01:47:29.878Z,12.17
2017-11-20T01:49:59.066Z,11.97
2017-11-20T01:52:28.384Z,11.83
2017-11-20T01:54:57.445Z,12.80
2017-11-20T01:57:34.237Z,11.13
2017-11-20T02:00:03.576Z,13.20
2017-11-20T02:02:38.974Z,11.10
2017-11-20T02:05:08.066Z,13.03
2017-11-20T02:07:37.102Z,10.87
2017-11-20T02:10:06.189Z,11.93
2017-11-20T02:12:35.244Z,13.50
2017-11-20T02:15:04.331Z,12.10
2017-11-20T02:17:33.416Z,12.27
2017-11-20T02:20:02.551Z,12.83
2017-11-20T02:22:31.896Z,11.93
2017-11-20T02:25:00.976Z,10.73
2017-11-20T02:27:37.884Z,11.97
2017-11-20T02:30:06.939Z,10.93
2017-11-20T02:32:42.107Z,11.13
2017-11-20T02:35:13.214Z,12.07
2017-11-20T02:37:42.299Z,10.40
2017-11-20T02:40:11.380Z,11.33
2017-11-20T02:42:44.555Z,9.90
2017-11-20T02:45:26.801Z,10.13
2017-11-20T02:47:56.028Z,10.60
2017-11-20T02:50:25.136Z,10.10
2017-11-20T02:52:54.300Z,9.13
2017-11-20T02:55:23.608Z,9.97
2017-11-20T02:58:07.987Z,10.43
2017-11-20T03:00:38.110Z,10.10
2017-11-20T03:03:07.144Z,9.90
2017-11-20T03:05:48.604Z,8.93
2017-11-20T03:08:17.751Z,8.40
2017-11-20T03:11:01.177Z,10.03
2017-11-20T03:13:30.505Z,9.00
2017-11-20T03:15:59.536Z,9.97
2017-11-20T03:18:35.522Z,10.17
2017-11-20T03:21:04.576Z,8.30
2017-11-20T03:23:34.428Z,9.80
2017-11-20T03:26:03.513Z,8.53
2017-11-20T03:28:33.373Z,9.43
2017-11-20T03:31:02.453Z,8.93
2017-11-20T03:33:31.844Z,8.97
2017-11-20T03:36:01.461Z,9.60
2017-11-20T03:38:30.781Z,9.20
2017-11-20T03:40:59.869Z,8.10
2017-11-20T03:43:28.972Z,7.97
2017-11-20T03:45:58.001Z,9.07
2017-11-20T03:48:27.080Z,9.33
2017-11-20T03:50:56.152Z,9.83
2017-11-20T03:53:25.211Z,8.87
2017-11-20T03:55:54.285Z,9.30
2017-11-20T03:58:33.968Z,10.70
2017-11-20T04:01:03.032Z,8.50
2017-11-20T04:03:32.057Z,9.00
2017-11-20T04:06:01.320Z,8.87
2017-11-20T04:08:31.080Z,9.13
2017-11-20T04:11:00.128Z,8.07
2017-11-20T04:13:29.188Z,9.03
2017-11-20T04:15:58.236Z,8.57
2017-11-20T04:18:28.481Z,8.60
2017-11-20T04:21:03.512Z,8.77
2017-11-20T04:23:32.572Z,8.33
2017-11-20T04:26:01.632Z,8.03
2017-11-20T04:28:30.724Z,8.77
2017-11-20T04:30:59.815Z,9.33
2017-11-20T04:33:28.896Z,9.37
2017-11-20T04:36:03.995Z,9.30
2017-11-20T04:38:33.074Z,8.03
2017-11-20T04:41:06.404Z,10.00
2017-11-20T04:43:35.476Z,8.43
2017-11-20T04:46:05.608Z,9.20
2017-11-20T04:48:34.650Z,10.00
2017-11-20T04:51:03.769Z,10.17
2017-11-20T04:53:32.878Z,10.37
2017-11-20T04:56:12.005Z,10.27
2017-11-20T04:58:41.168Z,11.27
2017-11-20T05:01:10.217Z,10.17
2017-11-20T05:03:39.275Z,10.30
2017-11-20T05:06:08.305Z,9.80
2017-11-20T05:08:37.505Z,10.77
2017-11-20T05:11:06.588Z,9.70
2017-11-20T05:13:35.676Z,11.80
2017-11-20T05:16:04.727Z,11.00
2017-11-20T05:18:33.755Z,10.10
2017-11-20T05:21:02.805Z,11.13
2017-11-20T05:23:31.869Z,13.27
2017-11-20T05:26:01.421Z,12.83
2017-11-20T05:28:30.525Z,13.50
2017-11-20T05:30:59.752Z,11.33
2017-11-20T05:33:28.766Z,10.30
2017-11-20T05:35:57.801Z,13.33
2017-11-20T05:38:26.837Z,12.90
2017-11-20T05:40:55.915Z,11.30
2017-11-20T05:43:24.980Z,11.33
2017-11-20T05:46:09.516Z,9.10
2017-11-20T05:48:40.069Z,10.77
2017-11-20T05:51:09.125Z,10.37
2017-11-20T05:53:38.219Z,9.80
2017-11-20T05:56:20.740Z,10.57
2017-11-20T05:58:49.818Z,11.20
2017-11-20T06:01:26.721Z,11.97
2017-11-20T06:03:55.796Z,11.80
2017-11-20T06:06:31.188Z,10.50
2017-11-20T06:09:00.252Z,11.73
2017-11-20T06:11:29.284Z,11.37
2017-11-20T06:13:58.308Z,10.77
2017-11-20T06:16:27.368Z,10.43
2017-11-20T06:19:06.405Z,10.63
2017-11-20T06:21:35.447Z,11.70
2017-11-20T06:24:17.659Z,9.43
2017-11-20T06:26:46.688Z,12.13
2017-11-20T06:29:15.736Z,12.67
2017-11-20T06:31:44.816Z,10.77
2017-11-20T06:34:20.059Z,13.97
2017-11-20T06:36:49.146Z,11.53
2017-11-20T06:39:18.189Z,12.13
2017-11-20T06:41:47.233Z,12.97
2017-11-20T06:44:29.496Z,13.50
2017-11-20T06:46:59.081Z,12.53
2017-11-20T06:49:28.146Z,13.17
2017-11-20T06:51:57.212Z,13.20
2017-11-20T06:54:33.209Z,12.03
2017-11-20T06:57:02.252Z,14.07
2017-11-20T06:59:31.334Z,11.73
2017-11-20T07:02:00.402Z,11.20
2017-11-20T07:04:29.464Z,12.27
2017-11-20T07:06:58.491Z,13.20
2017-11-20T07:09:27.565Z,11.80
2017-11-20T07:11:56.644Z,12.13
2017-11-20T07:14:33.803Z,13.37
2017-11-20T07:17:02.838Z,11.30
2017-11-20T07:19:31.900Z,12.47
2017-11-20T07:22:00.948Z,12.40
2017-11-20T07:24:30.021Z,10.63
2017-11-20T07:27:00.055Z,12.07
2017-11-20T07:29:34.728Z,12.83
2017-11-20T07:32:03.812Z,12.20
2017-11-20T07:34:38.608Z,10.40
2017-11-20T07:37:13.370Z,12.30
2017-11-20T07:39:42.510Z,13.17
2017-11-20T07:42:11.577Z,13.00
2017-11-20T07:44:40.641Z,14.23
2017-11-20T07:47:12.916Z,11.73
2017-11-20T07:49:41.959Z,13.27
2017-11-20T07:52:11.058Z,13.43
2017-11-20T07:54:40.869Z,12.20
2017-11-20T07:57:16.993Z,11.00
2017-11-20T07:59:46.015Z,12.93
2017-11-20T08:02:21.145Z,13.30
2017-11-20T08:05:00.933Z,11.60
2017-11-20T08:07:43.229Z,11.30
2017-11-20T08:10:12.280Z,10.73
2017-11-20T08:12:55.524Z,13.60
2017-11-20T08:15:24.850Z,13.60
2017-11-20T08:17:54.309Z,12.57
2017-11-20T08:20:23.384Z,12.57
2017-11-20T08:22:52.614Z,11.90
2017-11-20T08:25:21.709Z,11.00
2017-11-20T08:27:50.748Z,11.80
2017-11-20T08:30:29.607Z,10.73
2017-11-20T08:32:58.699Z,12.90
2017-11-20T08:35:27.999Z,12.33
2017-11-20T08:37:57.076Z,13.47
2017-11-20T08:40:26.143Z,12.33
2017-11-20T08:42:55.218Z,11.10
2017-11-20T08:45:27.331Z,11.83
2017-11-20T08:47:56.813Z,10.50
2017-11-20T08:50:25.885Z,10.33
2017-11-20T08:52:54.973Z,11.77
2017-11-20T08:55:24.289Z,10.93
2017-11-20T08:57:53.355Z,12.43
2017-11-20T09:00:22.453Z,13.87
2017-11-20T09:02:58.278Z,14.40
2017-11-20T09:05:27.389Z,14.10
2017-11-20T09:07:56.477Z,14.33
2017-11-20T09:10:25.538Z,13.50
2017-11-20T09:12:54.836Z,14.90
2017-11-20T09:15:23.892Z,14.03
2017-11-20T09:17:53.854Z,12.63
2017-11-20T09:20:22.946Z,13.60
2017-11-20T09:22:52.352Z,15.80
2017-11-20T09:25:21.419Z,13.03
2017-11-20T09:28:04.267Z,15.90
2017-11-20T09:30:33.360Z,14.37
2017-11-20T09:33:02.411Z,13.63
2017-11-20T09:35:31.820Z,15.70
2017-11-20T09:38:00.872Z,15.47
2017-11-20T09:40:29.916Z,13.17
2017-11-20T09:42:59.132Z,14.57
2017-11-20T09:45:28.220Z,15.40
2017-11-20T09:47:57.765Z,15.00
2017-11-20T09:50:40.312Z,18.90
2017-11-20T09:53:09.405Z,14.73
2017-11-20T09:55:44.534Z,16.43
2017-11-20T09:58:13.887Z,15.07
2017-11-20T10:00:43.037Z,19.13
2017-11-20T10:03:18.259Z,20.30
2017-11-20T10:05:47.307Z,20.70
2017-11-20T10:08:16.371Z,18.83
2017-11-20T10:10:46.379Z,21.17
2017-11-20T10:13:17.374Z,18.63
2017-11-20T10:15:54.106Z,18.43
2017-11-20T10:18:23.216Z,18.40
2017-11-20T10:20:52.346Z,19.90
2017-11-20T10:23:21.459Z,19.10
2017-11-20T10:26:03.194Z,18.70
2017-11-20T10:28:32.269Z,20.53
2017-11-20T10:31:01.984Z,19.57
2017-11-20T10:33:31.448Z,17.00
2017-11-20T10:36:00.787Z,16.50
2017-11-20T10:38:37.699Z,19.93
2017-11-20T10:41:13.879Z,16.03
2017-11-20T10:43:43.206Z,18.40
2017-11-20T10:46:12.466Z,20.30
2017-11-20T10:48:48.865Z,18.53
2017-11-20T10:51:17.973Z,19.20
2017-11-20T10:53:47.358Z,18.40
2017-11-20T10:56:22.768Z,19.67
2017-11-20T10:58:58.387Z,18.63
2017-11-20T11:01:28.558Z,18.13
2017-11-20T11:03:57.639Z,18.70
2017-11-20T11:06:39.989Z,18.83
2017-11-20T11:09:09.869Z,13.70
2017-11-20T11:11:38.956Z,11.27
2017-11-20T11:14:08.591Z,10.30
2017-11-20T11:16:37.652Z,9.80
2017-11-20T11:19:06.718Z,9.40
2017-11-20T11:21:36.155Z,8.83
2017-11-20T11:24:05.216Z,10.03
2017-11-20T11:26:34.293Z,9.03
2017-11-20T11:29:04.296Z,9.13
2017-11-20T11:31:33.363Z,9.07
2017-11-20T11:34:03.037Z,7.80
2017-11-20T11:36:32.131Z,9.90
2017-11-20T11:39:01.203Z,9.43
2017-11-20T11:41:30.897Z,9.80
2017-11-20T11:44:00.008Z,10.23
2017-11-20T11:46:29.100Z,11.23
2017-11-20T11:48:58.180Z,10.67
2017-11-20T11:51:33.326Z,11.17
2017-11-20T11:54:08.814Z,10.03
2017-11-20T11:56:37.902Z,8.37
2017-11-20T11:59:07.036Z,7.93
2017-11-20T12:01:36.191Z,7.73
2017-11-20T12:04:06.192Z,7.83
2017-11-20T12:06:35.300Z,6.97
2017-11-20T12:09:04.828Z,6.20
2017-11-20T12:11:33.856Z,6.97
2017-11-20T12:14:03.425Z,5.63
2017-11-20T12:16:32.535Z,5.63
2017-11-20T12:19:09.284Z,5.73
2017-11-20T12:21:38.417Z,4.90
2017-11-20T12:24:07.572Z,5.30
2017-11-20T12:26:43.426Z,5.50
2017-11-20T12:29:12.513Z,4.30
2017-11-20T12:31:47.779Z,3.93
2017-11-20T12:34:16.861Z,4.53
2017-11-20T12:36:45.923Z,3.60
2017-11-20T12:39:14.929Z,3.53
2017-11-20T12:41:44.020Z,3.63
2017-11-20T12:44:13.441Z,3.47
2017-11-20T12:46:42.556Z,2.93
2017-11-20T12:49:11.876Z,3.50
2017-11-20T12:51:41.078Z,3.30
2017-11-20T12:54:10.391Z,3.37
2017-11-20T12:56:39.476Z,3.07
2017-11-20T12:59:16.041Z,3.70
2017-11-20T13:01:45.163Z,3.73
2017-11-20T13:04:14.319Z,3.47
2017-11-20T13:06:43.417Z,4.60
2017-11-20T13:09:12.554Z,3.77
2017-11-20T13:11:41.649Z,3.80
2017-11-20T13:14:12.557Z,3.03
2017-11-20T13:16:48.502Z,3.60
2017-11-20T13:19:18.380Z,3.37
2017-11-20T13:21:47.521Z,3.47
2017-11-20T13:24:16.821Z,3.23
2017-11-20T13:26:45.940Z,3.03
2017-11-20T13:29:15.021Z,3.40
2017-11-20T13:31:44.165Z,4.27
2017-11-20T13:34:14.087Z,3.40
2017-11-20T13:36:43.712Z,3.30
2017-11-20T13:39:14.119Z,3.70
2017-11-20T13:41:43.392Z,3.60
2017-11-20T13:44:19.513Z,5.83
2017-11-20T13:46:55.320Z,4.80
2017-11-20T13:49:24.416Z,4.57
2017-11-20T13:51:53.496Z,4.07
2017-11-20T13:54:23.339Z,4.17
2017-11-20T13:56:52.646Z,4.60
2017-11-20T13:59:33.727Z,4.00
2017-11-20T14:02:02.830Z,4.60
2017-11-20T14:04:31.968Z,4.10
2017-11-20T14:07:08.779Z,4.60
2017-11-20T14:09:44.117Z,4.80
2017-11-20T14:12:13.349Z,4.70
2017-11-20T14:14:56.952Z,4.83
2017-11-20T14:17:26.967Z,4.00
2017-11-20T14:19:56.605Z,4.60
2017-11-20T14:22:25.861Z,4.50
2017-11-20T14:24:54.952Z,5.17
2017-11-20T14:27:27.599Z,4.57
2017-11-20T14:29:59.984Z,4.80
2017-11-20T14:32:31.153Z,5.23
2017-11-20T14:35:00.437Z,4.70
2017-11-20T14:37:29.600Z,3.80
2017-11-20T14:39:58.705Z,3.83
2017-11-20T14:42:28.845Z,4.93
2017-11-20T14:44:58.354Z,5.50
2017-11-20T14:47:27.439Z,4.30
2017-11-20T14:49:56.570Z,5.10
2017-11-20T14:52:27.569Z,4.50
2017-11-20T14:54:56.966Z,5.70
2017-11-20T14:57:26.320Z,5.90
2017-11-20T15:00:05.609Z,5.60
2017-11-20T15:02:38.547Z,4.50
2017-11-20T15:05:07.842Z,4.73
2017-11-20T15:07:36.964Z,4.80
2017-11-20T15:10:06.040Z,4.20
2017-11-20T15:12:35.661Z,4.23
2017-11-20T15:15:04.737Z,4.53
2017-11-20T15:17:33.873Z,5.70
2017-11-20T15:20:03.051Z,5.43
2017-11-20T15:22:32.215Z,5.50
2017-11-20T15:25:01.800Z,8.47
2017-11-20T15:27:31.027Z,4.97
2017-11-20T15:30:00.153Z,7.10
2017-11-20T15:32:29.254Z,6.20
2017-11-20T15:34:58.357Z,6.50
2017-11-20T15:37:27.497Z,6.47
2017-11-20T15:40:00.338Z,5.47
2017-11-20T15:42:29.413Z,7.83
2017-11-20T15:44:58.527Z,5.63
2017-11-20T15:47:27.565Z,6.70
2017-11-20T15:49:56.644Z,8.60
2017-11-20T15:52:33.492Z,8.70
2017-11-20T15:55:02.963Z,4.90
2017-11-20T15:57:32.072Z,5.73
2017-11-20T16:00:01.132Z,6.33
2017-11-20T16:02:30.216Z,6.00
2017-11-20T16:05:00.510Z,5.10
2017-11-20T16:07:29.618Z,6.97
2017-11-20T16:10:07.654Z,8.40
2017-11-20T16:12:36.975Z,8.03
2017-11-20T16:15:06.122Z,9.57
2017-11-20T16:17:35.200Z,7.87
2017-11-20T16:20:04.212Z,5.10
2017-11-20T16:22:38.291Z,5.53
2017-11-20T16:25:07.816Z,5.23
2017-11-20T16:27:49.660Z,4.90
2017-11-20T16:30:18.750Z,6.93
2017-11-20T16:32:48.138Z,5.97
2017-11-20T16:35:17.222Z,4.37
2017-11-20T16:37:46.947Z,5.00
2017-11-20T16:40:16.210Z,5.87
2017-11-20T16:42:45.680Z,6.00
2017-11-20T16:45:15.286Z,5.67
2017-11-20T16:47:45.166Z,4.70
2017-11-20T16:50:14.290Z,5.53
2017-11-20T16:52:57.190Z,4.80
2017-11-20T16:55:26.561Z,5.57
2017-11-20T16:58:10.487Z,6.50
2017-11-20T17:00:44.651Z,4.47
2017-11-20T17:03:13.890Z,4.63
2017-11-20T17:05:43.009Z,3.87
2017-11-20T17:08:12.075Z,4.80
2017-11-20T17:10:41.127Z,5.57
2017-11-20T17:13:10.196Z,4.67
2017-11-20T17:15:41.359Z,5.60
2017-11-20T17:18:22.653Z,4.83
2017-11-20T17:20:52.649Z,4.33
2017-11-20T17:23:28.276Z,5.60
2017-11-20T17:25:58.555Z,5.60
2017-11-20T17:28:27.849Z,4.10
2017-11-20T17:30:56.896Z,6.00
2017-11-20T17:33:26.198Z,5.43
2017-11-20T17:35:55.757Z,4.20
2017-11-20T17:38:25.404Z,3.83
2017-11-20T17:40:54.436Z,4.00
2017-11-20T17:43:23.655Z,3.87
2017-11-20T17:45:53.477Z,4.43
2017-11-20T17:48:22.568Z,4.20
2017-11-20T17:50:51.624Z,4.23
2017-11-20T17:53:20.830Z,3.90
2017-11-20T17:55:50.103Z,3.83
2017-11-20T17:58:19.445Z,4.17
2017-11-20T18:00:52.227Z,4.60
2017-11-20T18:03:21.295Z,4.40
2017-11-20T18:05:50.327Z,5.03
2017-11-20T18:08:19.440Z,4.83
2017-11-20T18:10:48.503Z,3.73
2017-11-20T18:13:31.081Z,4.80
2017-11-20T18:16:00.199Z,4.43
2017-11-20T18:18:42.295Z,4.77
2017-11-20T18:21:11.681Z,4.87
2017-11-20T18:23:43.005Z,4.63
2017-11-20T18:26:25.028Z,4.43
2017-11-20T18:29:02.532Z,4.70
2017-11-20T18:31:31.612Z,4.70
2017-11-20T18:34:00.978Z,4.00
2017-11-20T18:36:30.453Z,4.73
2017-11-20T18:39:01.939Z,4.90
2017-11-20T18:41:32.577Z,4.93
2017-11-20T18:44:01.680Z,4.50
2017-11-20T18:46:30.780Z,4.60
2017-11-20T18:49:00.120Z,4.60
2017-11-20T18:51:30.136Z,4.27
2017-11-20T18:54:02.712Z,4.10
2017-11-20T18:56:32.048Z,4.30
2017-11-20T18:59:01.433Z,4.40
2017-11-20T19:01:36.301Z,4.60
2017-11-20T19:04:11.205Z,3.80
2017-11-20T19:06:47.142Z,4.10
2017-11-20T19:09:16.237Z,3.77
2017-11-20T19:11:45.327Z,4.20
2017-11-20T19:14:14.652Z,4.27
2017-11-20T19:16:43.980Z,4.57
2017-11-20T19:19:13.880Z,4.53
2017-11-20T19:21:43.124Z,4.67
2017-11-20T19:24:12.427Z,4.50
2017-11-20T19:26:41.960Z,3.77
2017-11-20T19:29:16.132Z,3.17
2017-11-20T19:31:45.791Z,3.60
2017-11-20T19:34:16.261Z,3.70
2017-11-20T19:36:58.710Z,4.27
2017-11-20T19:39:27.832Z,3.83
2017-11-20T19:41:56.940Z,4.90
2017-11-20T19:44:26.181Z,5.57
2017-11-20T19:46:55.220Z,5.63
2017-11-20T19:49:24.277Z,5.90
2017-11-20T19:51:53.529Z,8.70
2017-11-20T19:54:22.671Z,6.00
2017-11-20T19:56:51.716Z,6.93
2017-11-20T19:59:20.783Z,7.67
2017-11-20T20:01:58.616Z,6.13
2017-11-20T20:04:27.676Z,7.10
2017-11-20T20:06:56.988Z,6.80
2017-11-20T20:09:26.045Z,6.60
2017-11-20T20:12:01.421Z,8.00
2017-11-20T20:14:30.987Z,8.27
2017-11-20T20:17:12.789Z,7.40
2017-11-20T20:19:41.824Z,8.57
2017-11-20T20:22:10.950Z,8.40
2017-11-20T20:24:40.043Z,8.00
2017-11-20T20:27:09.106Z,8.73
2017-11-20T20:29:38.199Z,8.70
2017-11-20T20:32:07.480Z,8.57
2017-11-20T20:34:44.727Z,9.20
2017-11-20T20:37:13.829Z,9.47
2017-11-20T20:39:43.069Z,9.60
2017-11-20T20:42:12.388Z,8.93
2017-11-20T20:44:48.653Z,9.10
2017-11-20T20:47:17.712Z,9.60
2017-11-20T20:49:47.556Z,9.80
2017-11-20T20:52:17.163Z,10.60
2017-11-20T20:54:46.654Z,10.03
2017-11-20T20:57:15.952Z,10.70
2017-11-20T20:59:45.054Z,9.90
2017-11-20T21:02:14.118Z,9.20
2017-11-20T21:04:43.491Z,10.37
2017-11-20T21:07:13.117Z,10.07
2017-11-20T21:10:04.382Z,9.67
2017-11-20T21:12:33.483Z,8.90
2017-11-20T21:15:02.870Z,9.43
2017-11-20T21:17:31.952Z,9.00
2017-11-20T21:20:01.089Z,8.60
2017-11-20T21:22:42.605Z,8.73
2017-11-20T21:25:11.652Z,9.37
2017-11-20T21:27:40.754Z,9.37
2017-11-20T21:30:10.660Z,10.13
2017-11-20T21:32:46.165Z,10.23
2017-11-20T21:35:15.249Z,10.10
2017-11-20T21:37:44.348Z,11.40
2017-11-20T21:40:13.391Z,10.90
2017-11-20T21:42:43.212Z,9.83
2017-11-20T21:45:12.273Z,11.53
2017-11-20T21:47:41.340Z,10.10
2017-11-20T21:50:10.516Z,11.07
2017-11-20T21:52:39.633Z,12.53
2017-11-20T21:55:08.984Z,12.30
2017-11-20T21:57:38.066Z,12.77
2017-11-20T22:00:07.226Z,12.20
2017-11-20T22:02:36.697Z,10.67
2017-11-20T22:05:05.998Z,13.00
2017-11-20T22:07:35.038Z,12.13
2017-11-20T22:10:04.096Z,11.47
2017-11-20T22:12:40.395Z,11.13
2017-11-20T22:15:09.581Z,12.53
2017-11-20T22:17:42.039Z,12.77
2017-11-20T22:20:11.279Z,11.80
2017-11-20T22:22:41.239Z,12.40
2017-11-20T22:25:17.476Z,10.47
2017-11-20T22:27:47.843Z,11.90
2017-11-20T22:30:17.770Z,12.20
2017-11-20T22:32:47.025Z,12.20
2017-11-20T22:35:16.357Z,12.03
2017-11-20T22:37:45.436Z,12.53
2017-11-20T22:40:27.389Z,11.23
2017-11-20T22:42:56.519Z,11.70
2017-11-20T22:45:40.008Z,10.83
2017-11-20T22:48:15.873Z,10.73
2017-11-20T22:50:44.969Z,11.03
2017-11-20T22:53:14.818Z,12.07
2017-11-20T22:55:44.713Z,10.97
2017-11-20T22:58:13.783Z,10.80
2017-11-20T23:00:42.850Z,11.20
2017-11-20T23:03:12.187Z,10.13
2017-11-20T23:05:41.419Z,10.83
2017-11-20T23:08:10.574Z,10.57
2017-11-20T23:10:40.516Z,10.97
2017-11-20T23:13:09.626Z,10.60
2017-11-20T23:15:38.972Z,10.60
2017-11-20T23:18:08.036Z,11.17
2017-11-20T23:20:37.772Z,9.97
2017-11-20T23:23:06.816Z,10.63
2017-11-20T23:25:36.788Z,10.37
2017-11-20T23:28:05.887Z,10.77
2017-11-20T23:30:34.957Z,10.43
2017-11-20T23:33:04.080Z,9.90
2017-11-20T23:35:33.185Z,9.57
2017-11-20T23:38:02.262Z,9.30
2017-11-20T23:40:31.886Z,9.13
2017-11-20T23:43:00.940Z,9.50
2017-11-20T23:45:30.017Z,7.73
2017-11-20T23:47:59.025Z,7.40
2017-11-20T23:50:28.337Z,8.77
2017-11-20T23:52:57.391Z,8.50
2017-11-20T23:55:26.472Z,8.20
2017-11-20T23:57:55.524Z,8.60
